createdAt,value
2022-10-14T00:03:58.515Z,39.03
2022-10-14T00:09:06.174Z,34.03
2022-10-14T00:14:12.357Z,34.81
2022-10-14T00:19:18.836Z,34.90
2022-10-14T00:24:25.028Z,35.09
2022-10-14T00:29:31.154Z,35.02
2022-10-14T00:34:38.641Z,35.71
2022-10-14T00:39:43.977Z,36.86
2022-10-14T00:44:50.289Z,35.89
2022-10-14T00:49:56.503Z,37.07
2022-10-14T00:55:02.651Z,36.44
2022-10-14T01:00:08.843Z,35.53
2022-10-14T01:05:15.446Z,37.31
2022-10-14T01:10:54.491Z,40.51
2022-10-14T01:16:00.770Z,36.04
2022-10-14T01:21:06.910Z,36.16
2022-10-14T01:26:13.090Z,37.79
2022-10-14T01:31:19.162Z,35.17
2022-10-14T01:36:25.304Z,36.63
2022-10-14T01:41:31.444Z,37.21
2022-10-14T01:46:37.968Z,38.07
2022-10-14T01:51:44.019Z,37.19
2022-10-14T01:56:50.507Z,36.30
2022-10-14T02:01:56.772Z,37.11
2022-10-14T02:07:02.864Z,38.14
2022-10-14T02:12:10.342Z,38.55
2022-10-14T02:17:16.479Z,39.43
2022-10-14T02:22:22.962Z,38.81
2022-10-14T02:27:28.256Z,38.74
2022-10-14T02:32:34.360Z,39.62
2022-10-14T02:37:40.499Z,38.80
2022-10-14T02:42:46.544Z,41.02
2022-10-14T02:47:53.037Z,41.13
2022-10-14T02:52:59.195Z,42.72
2022-10-14T02:58:05.536Z,41.94
2022-10-14T03:03:11.932Z,40.94
2022-10-14T03:08:18.379Z,43.62
2022-10-14T03:13:24.892Z,43.51
2022-10-14T03:18:31.181Z,42.42
2022-10-14T03:23:37.215Z,45.14
2022-10-14T03:28:44.309Z,44.36
2022-10-14T03:33:50.421Z,43.85
2022-10-14T03:38:56.647Z,42.69
2022-10-14T03:44:02.682Z,44.48
2022-10-14T03:49:08.930Z,44.56
2022-10-14T03:54:15.005Z,45.88
2022-10-14T03:59:21.211Z,43.60
2022-10-14T04:04:27.452Z,43.74
2022-10-14T04:09:33.731Z,44.87
2022-10-14T04:14:40.133Z,43.75
2022-10-14T04:19:46.490Z,44.14
2022-10-14T04:24:52.551Z,43.37
2022-10-14T04:29:59.055Z,42.74
2022-10-14T04:35:05.230Z,41.84
2022-10-14T04:40:11.401Z,43.33
2022-10-14T04:45:17.868Z,41.45
2022-10-14T04:50:24.478Z,41.54
2022-10-14T04:55:30.536Z,41.53
2022-10-14T05:00:36.811Z,42.97
2022-10-14T05:06:53.303Z,49.15
2022-10-14T05:11:59.745Z,43.00
2022-10-14T05:17:06.207Z,42.56
2022-10-14T05:22:12.499Z,42.54
2022-10-14T05:27:18.999Z,42.28
2022-10-14T05:32:25.184Z,43.44
2022-10-14T05:37:31.323Z,41.15
2022-10-14T05:42:37.854Z,41.98
2022-10-14T05:47:44.133Z,41.46
2022-10-14T05:52:50.322Z,39.98
2022-10-14T05:57:56.411Z,40.72
2022-10-14T06:03:02.728Z,38.84
2022-10-14T06:08:08.775Z,38.40
2022-10-14T06:13:15.022Z,38.38
2022-10-14T06:18:21.086Z,38.20
2022-10-14T06:23:27.500Z,37.39
2022-10-14T06:28:34.002Z,37.58
2022-10-14T06:33:40.088Z,37.95
2022-10-14T06:38:46.161Z,36.81
2022-10-14T06:43:52.334Z,36.46
2022-10-14T06:48:58.456Z,37.80
2022-10-14T06:54:06.396Z,36.92
2022-10-14T06:59:10.641Z,35.18
2022-10-14T07:04:16.965Z,34.54
2022-10-14T07:09:23.928Z,33.88
2022-10-14T07:14:30.215Z,33.32
2022-10-14T07:19:36.269Z,32.86
2022-10-14T07:24:42.417Z,32.17
2022-10-14T07:29:48.494Z,30.57
2022-10-14T07:34:54.770Z,28.98
2022-10-14T07:40:01.193Z,28.72
2022-10-14T07:45:07.322Z,28.21
2022-10-14T07:50:13.390Z,28.32
2022-10-14T07:55:19.563Z,27.41
2022-10-14T08:00:25.649Z,26.29
2022-10-14T08:05:38.591Z,23.95
2022-10-14T08:10:37.758Z,24.04
2022-10-14T08:15:43.935Z,23.61
2022-10-14T08:20:49.998Z,23.19
2022-10-14T08:25:56.692Z,22.42
2022-10-14T08:31:02.744Z,22.91
2022-10-14T08:36:09.102Z,22.82
2022-10-14T08:41:15.292Z,21.87
2022-10-14T08:46:21.604Z,22.16
2022-10-14T08:51:27.670Z,23.15
2022-10-14T08:56:33.924Z,22.28
2022-10-14T09:01:40.100Z,22.36
2022-10-14T09:06:46.283Z,21.75
2022-10-14T09:11:52.342Z,22.18
2022-10-14T09:16:58.584Z,22.00
2022-10-14T09:22:07.619Z,21.83
2022-10-14T09:27:13.820Z,22.62
2022-10-14T09:32:20.327Z,21.57
2022-10-14T09:37:25.972Z,21.64
2022-10-14T09:42:31.245Z,20.98
2022-10-14T09:47:37.620Z,19.61
2022-10-14T09:52:43.773Z,19.59
2022-10-14T09:57:49.919Z,19.49
2022-10-14T10:02:55.961Z,20.30
2022-10-14T10:08:02.274Z,20.73
2022-10-14T10:13:08.395Z,19.97
2022-10-14T10:18:14.723Z,20.14
2022-10-14T10:23:20.802Z,20.33
2022-10-14T10:28:27.035Z,20.34
2022-10-14T10:33:33.042Z,19.07
2022-10-14T10:38:39.217Z,19.52
2022-10-14T10:43:45.279Z,19.77
2022-10-14T10:48:51.655Z,17.16
2022-10-14T10:53:57.771Z,18.67
2022-10-14T10:59:04.094Z,18.87
2022-10-14T11:04:10.574Z,18.78
2022-10-14T11:09:16.876Z,17.88
2022-10-14T11:14:23.091Z,17.70
2022-10-14T11:19:29.480Z,17.83
2022-10-14T11:24:35.601Z,18.28
2022-10-14T11:29:41.888Z,18.41
2022-10-14T11:34:48.023Z,19.08
2022-10-14T11:39:54.243Z,18.82
2022-10-14T11:45:00.329Z,19.58
2022-10-14T11:50:09.565Z,20.24
2022-10-14T11:55:15.709Z,20.60
2022-10-14T12:00:21.905Z,20.06
2022-10-14T12:05:27.901Z,22.90
2022-10-14T12:10:34.044Z,22.86
2022-10-14T12:15:40.898Z,23.57
2022-10-14T12:20:47.177Z,24.80
2022-10-14T12:25:53.600Z,25.34
2022-10-14T12:31:00.030Z,26.14
2022-10-14T12:36:06.887Z,26.38
2022-10-14T12:41:13.119Z,26.80
2022-10-14T12:46:19.282Z,26.84
2022-10-14T12:51:25.518Z,27.79
2022-10-14T12:56:31.588Z,26.50
2022-10-14T13:01:37.878Z,28.14
2022-10-14T13:06:44.015Z,28.32
2022-10-14T13:11:50.488Z,28.02
2022-10-14T13:16:56.576Z,27.76
2022-10-14T13:22:02.829Z,27.93
2022-10-14T13:27:08.927Z,28.70
2022-10-14T13:32:18.718Z,27.12
2022-10-14T13:37:21.043Z,25.58
2022-10-14T13:42:28.257Z,25.43
2022-10-14T13:47:34.354Z,26.73
2022-10-14T13:52:40.616Z,28.04
2022-10-14T13:58:11.403Z,27.69
2022-10-14T14:02:56.760Z,28.51
2022-10-14T14:08:38.775Z,28.38
2022-10-14T14:13:03.956Z,28.82
2022-10-14T14:18:10.027Z,29.43
2022-10-14T14:23:16.185Z,30.18
2022-10-14T14:28:22.280Z,30.41
2022-10-14T14:33:29.255Z,30.18
2022-10-14T14:38:36.057Z,30.63
2022-10-14T14:43:47.365Z,29.17
2022-10-14T14:48:53.459Z,29.23
2022-10-14T14:53:53.942Z,28.47
2022-10-14T14:59:00.388Z,25.70
2022-10-14T15:05:14.648Z,27.43
2022-10-14T15:10:20.817Z,21.75
2022-10-14T15:15:27.042Z,21.36
2022-10-14T15:20:33.187Z,20.48
2022-10-14T15:25:39.715Z,19.14
2022-10-14T15:30:46.115Z,18.21
2022-10-14T15:35:52.394Z,18.70
2022-10-14T15:40:58.830Z,17.36
2022-10-14T15:46:04.968Z,16.97
2022-10-14T15:51:11.080Z,16.33
2022-10-14T15:56:17.305Z,16.77
2022-10-14T16:01:23.868Z,15.83
2022-10-14T16:06:29.925Z,16.63
2022-10-14T16:11:35.994Z,16.41
2022-10-14T16:16:42.158Z,16.38
2022-10-14T16:21:48.635Z,17.09
2022-10-14T16:26:54.950Z,15.37
2022-10-14T16:32:01.025Z,15.31
2022-10-14T16:37:07.337Z,14.54
2022-10-14T16:42:14.338Z,13.20
2022-10-14T16:47:21.693Z,12.45
2022-10-14T16:52:27.010Z,11.56
2022-10-14T16:57:33.309Z,11.37
2022-10-14T17:02:39.452Z,11.41
2022-10-14T17:07:45.987Z,11.61
2022-10-14T17:12:52.444Z,11.56
2022-10-14T17:17:58.951Z,12.88
2022-10-14T17:23:09.497Z,12.23
2022-10-14T17:28:11.099Z,11.80
2022-10-14T17:33:17.280Z,13.38
2022-10-14T17:38:23.460Z,12.88
2022-10-14T17:43:29.939Z,14.20
2022-10-14T17:48:36.166Z,13.46
2022-10-14T17:53:43.704Z,12.94
2022-10-14T17:58:49.964Z,13.62
2022-10-14T18:03:56.091Z,13.46
2022-10-14T18:09:02.519Z,13.48
2022-10-14T18:14:09.435Z,13.47
2022-10-14T18:19:15.675Z,13.70
2022-10-14T18:24:21.852Z,13.68
2022-10-14T18:29:28.243Z,13.20
2022-10-14T18:34:34.312Z,15.43
2022-10-14T18:39:40.494Z,16.51
2022-10-14T18:44:46.566Z,15.75
2022-10-14T18:49:52.872Z,15.62
2022-10-14T18:54:59.223Z,14.66
2022-10-14T19:00:07.377Z,14.55
2022-10-14T19:05:11.386Z,14.76
2022-10-14T19:10:18.040Z,14.80
2022-10-14T19:15:24.198Z,13.94
2022-10-14T19:20:30.484Z,14.98
2022-10-14T19:25:36.537Z,15.84
2022-10-14T19:30:43.077Z,15.59
2022-10-14T19:35:49.504Z,16.60
2022-10-14T19:40:55.679Z,16.55
2022-10-14T19:46:01.902Z,15.80
2022-10-14T19:51:08.380Z,16.08
2022-10-14T19:56:14.536Z,16.71
2022-10-14T20:01:20.767Z,15.63
2022-10-14T20:06:26.772Z,16.65
2022-10-14T20:11:33.025Z,16.90
2022-10-14T20:16:39.167Z,16.74
2022-10-14T20:21:45.814Z,17.16
2022-10-14T20:26:51.888Z,17.22
2022-10-14T20:31:58.036Z,17.11
2022-10-14T20:37:04.949Z,18.14
2022-10-14T20:42:11.421Z,18.00
2022-10-14T20:47:17.464Z,16.29
2022-10-14T20:52:23.692Z,15.66
2022-10-14T20:57:29.730Z,13.67
2022-10-14T21:02:36.023Z,15.97
2022-10-14T21:08:15.753Z,19.87
2022-10-14T21:13:39.944Z,19.55
2022-10-14T21:18:46.038Z,19.37
2022-10-14T21:23:52.347Z,18.35
2022-10-14T21:28:58.933Z,19.22
2022-10-14T21:34:06.467Z,20.13
2022-10-14T21:39:11.566Z,20.47
2022-10-14T21:44:17.834Z,21.34
2022-10-14T21:49:24.030Z,20.73
2022-10-14T21:54:30.669Z,21.61
2022-10-14T21:59:37.216Z,21.75
2022-10-14T22:04:43.445Z,22.48
2022-10-14T22:09:49.596Z,22.19
2022-10-14T22:14:56.094Z,21.97
2022-10-14T22:20:02.173Z,21.50
2022-10-14T22:25:08.401Z,22.76
2022-10-14T22:30:14.861Z,21.87
2022-10-14T22:35:21.120Z,22.44
2022-10-14T22:40:27.351Z,22.63
2022-10-14T22:45:33.823Z,22.46
2022-10-14T22:50:40.219Z,22.32
2022-10-14T22:55:46.793Z,22.26
2022-10-14T23:00:52.870Z,22.23
2022-10-14T23:05:59.067Z,22.60
2022-10-14T23:11:05.348Z,21.66
2022-10-14T23:16:11.517Z,22.06
2022-10-14T23:21:17.580Z,20.77
2022-10-14T23:26:23.803Z,21.35
2022-10-14T23:31:30.132Z,21.41
2022-10-14T23:36:36.264Z,20.81
2022-10-14T23:41:42.342Z,21.48
2022-10-14T23:46:48.532Z,21.75
2022-10-14T23:51:54.704Z,21.39
2022-10-14T23:57:00.859Z,22.67
